sensor_id;sensor_type;location;lat;lon;timestamp;temperature;humidity
65040;HTU21D;51606;45.000;38.612;2023-07-13T00:00:09;17.90;75.99
65040;HTU21D;51606;45.000;38.612;2023-07-13T00:02:41;17.82;76.10
65040;HTU21D;51606;45.000;38.612;2023-07-13T00:05:08;17.77;76.24
65040;HTU21D;51606;45.000;38.612;2023-07-13T00:07:35;17.69;76.41
65040;HTU21D;51606;45.000;38.612;2023-07-13T00:10:03;17.66;76.48
65040;HTU21D;51606;45.000;38.612;2023-07-13T00:12:33;17.61;76.54
65040;HTU21D;51606;45.000;38.612;2023-07-13T00:15:04;17.53;76.63
65040;HTU21D;51606;45.000;38.612;2023-07-13T00:17:31;17.49;76.66
65040;HTU21D;51606;45.000;38.612;2023-07-13T00:19:58;17.47;76.75
65040;HTU21D;51606;45.000;38.612;2023-07-13T00:22:25;17.45;76.77
65040;HTU21D;51606;45.000;38.612;2023-07-13T00:24:53;17.44;76.81
65040;HTU21D;51606;45.000;38.612;2023-07-13T00:39:04;17.35;76.69
65040;HTU21D;51606;45.000;38.612;2023-07-13T00:41:31;17.30;76.71
65040;HTU21D;51606;45.000;38.612;2023-07-13T00:43:58;17.28;76.82
65040;HTU21D;51606;45.000;38.612;2023-07-13T00:46:30;17.36;76.79
65040;HTU21D;51606;45.000;38.612;2023-07-13T00:49:02;17.41;76.66
65040;HTU21D;51606;45.000;38.612;2023-07-13T00:51:47;17.40;76.73
65040;HTU21D;51606;45.000;38.612;2023-07-13T00:54:21;17.39;76.75
65040;HTU21D;51606;45.000;38.612;2023-07-13T00:56:52;17.38;76.79
65040;HTU21D;51606;45.000;38.612;2023-07-13T00:59:21;17.34;76.86
65040;HTU21D;51606;45.000;38.612;2023-07-13T01:01:49;17.29;77.01
65040;HTU21D;51606;45.000;38.612;2023-07-13T01:04:17;17.31;77.05
65040;HTU21D;51606;45.000;38.612;2023-07-13T01:06:45;17.35;76.98
65040;HTU21D;51606;45.000;38.612;2023-07-13T01:09:15;17.36;76.99
65040;HTU21D;51606;45.000;38.612;2023-07-13T01:11:42;17.35;76.98
65040;HTU21D;51606;45.000;38.612;2023-07-13T01:14:11;17.34;76.98
65040;HTU21D;51606;45.000;38.612;2023-07-13T01:16:40;17.29;77.13
65040;HTU21D;51606;45.000;38.612;2023-07-13T01:21:52;17.29;77.14
65040;HTU21D;51606;45.000;38.612;2023-07-13T01:24:19;17.33;77.12
65040;HTU21D;51606;45.000;38.612;2023-07-13T01:26:46;17.34;77.08
65040;HTU21D;51606;45.000;38.612;2023-07-13T01:29:13;17.40;77.06
65040;HTU21D;51606;45.000;38.612;2023-07-13T01:31:40;17.43;77.02
65040;HTU21D;51606;45.000;38.612;2023-07-13T01:34:06;17.44;77.02
65040;HTU21D;51606;45.000;38.612;2023-07-13T01:36:33;17.40;77.08
65040;HTU21D;51606;45.000;38.612;2023-07-13T01:38:59;17.36;77.19
65040;HTU21D;51606;45.000;38.612;2023-07-13T01:41:26;17.35;77.29
65040;HTU21D;51606;45.000;38.612;2023-07-13T01:43:53;17.35;77.34
65040;HTU21D;51606;45.000;38.612;2023-07-13T01:46:20;17.34;77.33
65040;HTU21D;51606;45.000;38.612;2023-07-13T01:48:46;17.31;77.35
65040;HTU21D;51606;45.000;38.612;2023-07-13T01:51:15;17.26;77.43
65040;HTU21D;51606;45.000;38.612;2023-07-13T01:53:42;17.22;77.50
65040;HTU21D;51606;45.000;38.612;2023-07-13T01:56:09;17.17;77.60
65040;HTU21D;51606;45.000;38.612;2023-07-13T01:58:35;17.13;77.68
65040;HTU21D;51606;45.000;38.612;2023-07-13T02:01:02;17.11;77.72
65040;HTU21D;51606;45.000;38.612;2023-07-13T02:03:29;17.13;77.69
65040;HTU21D;51606;45.000;38.612;2023-07-13T02:05:58;17.18;77.66
65040;HTU21D;51606;45.000;38.612;2023-07-13T02:08:24;17.20;77.61
65040;HTU21D;51606;45.000;38.612;2023-07-13T02:10:51;17.25;77.53
65040;HTU21D;51606;45.000;38.612;2023-07-13T02:13:18;17.26;77.47
65040;HTU21D;51606;45.000;38.612;2023-07-13T02:15:44;17.25;77.53
65040;HTU21D;51606;45.000;38.612;2023-07-13T02:18:11;17.30;77.58
65040;HTU21D;51606;45.000;38.612;2023-07-13T02:20:40;17.35;77.49
65040;HTU21D;51606;45.000;38.612;2023-07-13T02:23:07;17.40;77.37
65040;HTU21D;51606;45.000;38.612;2023-07-13T02:25:33;17.50;77.34
65040;HTU21D;51606;45.000;38.612;2023-07-13T02:28:00;17.62;77.21
65040;HTU21D;51606;45.000;38.612;2023-07-13T02:30:28;17.76;77.08
65040;HTU21D;51606;45.000;38.612;2023-07-13T02:32:56;17.90;76.95
65040;HTU21D;51606;45.000;38.612;2023-07-13T02:35:23;18.11;76.70
65040;HTU21D;51606;45.000;38.612;2023-07-13T02:37:49;18.37;76.24
65040;HTU21D;51606;45.000;38.612;2023-07-13T02:40:17;18.52;76.05
65040;HTU21D;51606;45.000;38.612;2023-07-13T02:42:43;18.65;76.16
65040;HTU21D;51606;45.000;38.612;2023-07-13T02:45:10;18.85;76.02
65040;HTU21D;51606;45.000;38.612;2023-07-13T02:47:40;19.07;75.78
65040;HTU21D;51606;45.000;38.612;2023-07-13T02:50:08;19.24;75.60
65040;HTU21D;51606;45.000;38.612;2023-07-13T02:52:35;19.43;75.38
65040;HTU21D;51606;45.000;38.612;2023-07-13T02:55:02;19.69;75.37
65040;HTU21D;51606;45.000;38.612;2023-07-13T02:57:28;20.25;74.94
65040;HTU21D;51606;45.000;38.612;2023-07-13T02:59:57;21.07;73.73
65040;HTU21D;51606;45.000;38.612;2023-07-13T03:02:24;21.94;72.47
65040;HTU21D;51606;45.000;38.612;2023-07-13T03:04:51;22.75;71.36
65040;HTU21D;51606;45.000;38.612;2023-07-13T03:07:18;23.16;70.69
65040;HTU21D;51606;45.000;38.612;2023-07-13T03:09:47;23.09;71.07
65040;HTU21D;51606;45.000;38.612;2023-07-13T03:12:14;22.92;71.64
65040;HTU21D;51606;45.000;38.612;2023-07-13T03:14:42;22.60;72.53
65040;HTU21D;51606;45.000;38.612;2023-07-13T03:17:08;22.77;72.93
65040;HTU21D;51606;45.000;38.612;2023-07-13T03:19:40;23.43;71.60
65040;HTU21D;51606;45.000;38.612;2023-07-13T03:22:08;23.59;71.06
65040;HTU21D;51606;45.000;38.612;2023-07-13T03:24:35;23.51;71.41
65040;HTU21D;51606;45.000;38.612;2023-07-13T03:27:05;23.82;71.28
65040;HTU21D;51606;45.000;38.612;2023-07-13T03:29:35;24.55;70.20
65040;HTU21D;51606;45.000;38.612;2023-07-13T03:32:02;25.29;69.09
65040;HTU21D;51606;45.000;38.612;2023-07-13T03:34:31;26.10;68.08
65040;HTU21D;51606;45.000;38.612;2023-07-13T03:36:59;26.85;67.08
65040;HTU21D;51606;45.000;38.612;2023-07-13T03:39:26;27.26;66.69
65040;HTU21D;51606;45.000;38.612;2023-07-13T03:41:55;27.73;66.33
65040;HTU21D;51606;45.000;38.612;2023-07-13T03:44:22;28.24;65.78
65040;HTU21D;51606;45.000;38.612;2023-07-13T03:46:53;28.86;65.11
65040;HTU21D;51606;45.000;38.612;2023-07-13T03:49:20;29.53;64.32
65040;HTU21D;51606;45.000;38.612;2023-07-13T03:51:47;30.23;63.50
65040;HTU21D;51606;45.000;38.612;2023-07-13T03:54:14;30.97;62.72
65040;HTU21D;51606;45.000;38.612;2023-07-13T03:56:40;31.63;61.99
65040;HTU21D;51606;45.000;38.612;2023-07-13T03:59:09;32.27;61.15
65040;HTU21D;51606;45.000;38.612;2023-07-13T04:01:35;32.42;60.94
65040;HTU21D;51606;45.000;38.612;2023-07-13T04:04:02;32.44;60.95
65040;HTU21D;51606;45.000;38.612;2023-07-13T04:06:30;32.77;60.57
65040;HTU21D;51606;45.000;38.612;2023-07-13T04:08:59;32.98;60.14
65040;HTU21D;51606;45.000;38.612;2023-07-13T04:11:31;33.44;59.46
65040;HTU21D;51606;45.000;38.612;2023-07-13T04:13:59;34.11;58.71
65040;HTU21D;51606;45.000;38.612;2023-07-13T04:16:26;34.91;57.52
65040;HTU21D;51606;45.000;38.612;2023-07-13T04:18:52;35.44;56.68
65040;HTU21D;51606;45.000;38.612;2023-07-13T04:21:21;35.81;56.14
65040;HTU21D;51606;45.000;38.612;2023-07-13T04:23:48;36.37;55.52
65040;HTU21D;51606;45.000;38.612;2023-07-13T04:26:14;36.69;54.84
65040;HTU21D;51606;45.000;38.612;2023-07-13T04:28:41;36.62;54.95
65040;HTU21D;51606;45.000;38.612;2023-07-13T04:31:07;36.82;54.57
65040;HTU21D;51606;45.000;38.612;2023-07-13T04:33:34;37.38;53.68
65040;HTU21D;51606;45.000;38.612;2023-07-13T04:36:00;37.41;53.36
65040;HTU21D;51606;45.000;38.612;2023-07-13T04:38:29;37.08;53.56
65040;HTU21D;51606;45.000;38.612;2023-07-13T04:41:01;37.10;53.46
65040;HTU21D;51606;45.000;38.612;2023-07-13T04:43:29;37.62;52.55
65040;HTU21D;51606;45.000;38.612;2023-07-13T04:45:57;37.92;51.72
65040;HTU21D;51606;45.000;38.612;2023-07-13T04:48:24;38.08;51.55
65040;HTU21D;51606;45.000;38.612;2023-07-13T04:50:57;38.58;50.40
65040;HTU21D;51606;45.000;38.612;2023-07-13T04:53:26;38.96;50.05
65040;HTU21D;51606;45.000;38.612;2023-07-13T04:55:52;39.35;49.61
65040;HTU21D;51606;45.000;38.612;2023-07-13T04:58:19;39.73;49.08
65040;HTU21D;51606;45.000;38.612;2023-07-13T05:00:47;40.00;48.69
65040;HTU21D;51606;45.000;38.612;2023-07-13T05:03:14;40.28;48.31
65040;HTU21D;51606;45.000;38.612;2023-07-13T05:05:40;40.66;47.75
65040;HTU21D;51606;45.000;38.612;2023-07-13T05:08:07;40.93;47.15
65040;HTU21D;51606;45.000;38.612;2023-07-13T05:10:35;41.24;46.65
65040;HTU21D;51606;45.000;38.612;2023-07-13T05:13:02;41.57;46.25
65040;HTU21D;51606;45.000;38.612;2023-07-13T05:15:29;41.72;46.01
65040;HTU21D;51606;45.000;38.612;2023-07-13T05:17:55;42.08;45.27
65040;HTU21D;51606;45.000;38.612;2023-07-13T05:20:22;42.13;44.99
65040;HTU21D;51606;45.000;38.612;2023-07-13T05:22:48;42.16;44.62
65040;HTU21D;51606;45.000;38.612;2023-07-13T05:25:16;41.93;44.70
65040;HTU21D;51606;45.000;38.612;2023-07-13T05:27:43;41.95;44.54
65040;HTU21D;51606;45.000;38.612;2023-07-13T05:30:11;42.03;44.05
65040;HTU21D;51606;45.000;38.612;2023-07-13T05:32:38;42.05;44.02
65040;HTU21D;51606;45.000;38.612;2023-07-13T05:35:05;42.19;43.67
65040;HTU21D;51606;45.000;38.612;2023-07-13T05:37:32;42.54;43.07
65040;HTU21D;51606;45.000;38.612;2023-07-13T05:39:59;42.78;42.55
65040;HTU21D;51606;45.000;38.612;2023-07-13T05:42:25;42.98;42.18
65040;HTU21D;51606;45.000;38.612;2023-07-13T05:44:52;43.17;41.69
65040;HTU21D;51606;45.000;38.612;2023-07-13T05:47:18;43.42;41.25
65040;HTU21D;51606;45.000;38.612;2023-07-13T05:49:45;43.32;41.08
65040;HTU21D;51606;45.000;38.612;2023-07-13T05:52:11;43.17;41.15
65040;HTU21D;51606;45.000;38.612;2023-07-13T05:54:38;42.94;41.19
65040;HTU21D;51606;45.000;38.612;2023-07-13T05:57:05;42.87;41.07
65040;HTU21D;51606;45.000;38.612;2023-07-13T05:59:31;43.06;40.67
65040;HTU21D;51606;45.000;38.612;2023-07-13T06:01:58;43.17;40.28
65040;HTU21D;51606;45.000;38.612;2023-07-13T06:04:25;42.94;40.20
65040;HTU21D;51606;45.000;38.612;2023-07-13T06:06:51;42.49;40.59
65040;HTU21D;51606;45.000;38.612;2023-07-13T06:09:19;42.82;40.02
65040;HTU21D;51606;45.000;38.612;2023-07-13T06:11:45;43.00;39.55
65040;HTU21D;51606;45.000;38.612;2023-07-13T06:14:12;42.61;39.88
65040;HTU21D;51606;45.000;38.612;2023-07-13T06:16:40;42.06;40.41
65040;HTU21D;51606;45.000;38.612;2023-07-13T06:19:07;42.15;40.03
65040;HTU21D;51606;45.000;38.612;2023-07-13T06:21:34;42.07;39.99
65040;HTU21D;51606;45.000;38.612;2023-07-13T06:24:00;42.38;39.44
65040;HTU21D;51606;45.000;38.612;2023-07-13T06:26:27;42.73;38.85
65040;HTU21D;51606;45.000;38.612;2023-07-13T06:28:54;42.75;38.67
65040;HTU21D;51606;45.000;38.612;2023-07-13T06:31:21;42.85;38.43
65040;HTU21D;51606;45.000;38.612;2023-07-13T06:33:47;43.14;38.10
65040;HTU21D;51606;45.000;38.612;2023-07-13T06:36:14;43.36;37.75
65040;HTU21D;51606;45.000;38.612;2023-07-13T06:38:41;43.44;37.62
65040;HTU21D;51606;45.000;38.612;2023-07-13T06:41:08;43.33;37.74
65040;HTU21D;51606;45.000;38.612;2023-07-13T06:43:34;43.42;37.47
65040;HTU21D;51606;45.000;38.612;2023-07-13T06:46:01;43.52;37.25
65040;HTU21D;51606;45.000;38.612;2023-07-13T06:48:28;43.70;36.91
65040;HTU21D;51606;45.000;38.612;2023-07-13T06:50:54;43.59;36.91
65040;HTU21D;51606;45.000;38.612;2023-07-13T06:53:22;42.44;38.20
65040;HTU21D;51606;45.000;38.612;2023-07-13T06:55:49;41.11;39.80
65040;HTU21D;51606;45.000;38.612;2023-07-13T06:58:17;39.70;41.62
65040;HTU21D;51606;45.000;38.612;2023-07-13T07:00:44;38.38;43.32
65040;HTU21D;51606;45.000;38.612;2023-07-13T07:03:11;37.46;44.56
65040;HTU21D;51606;45.000;38.612;2023-07-13T07:05:38;37.55;44.06
65040;HTU21D;51606;45.000;38.612;2023-07-13T07:08:04;38.09;42.84
65040;HTU21D;51606;45.000;38.612;2023-07-13T07:10:31;38.66;41.81
65040;HTU21D;51606;45.000;38.612;2023-07-13T07:12:58;38.59;41.62
65040;HTU21D;51606;45.000;38.612;2023-07-13T07:15:25;37.99;42.42
65040;HTU21D;51606;45.000;38.612;2023-07-13T07:17:53;37.99;42.50
65040;HTU21D;51606;45.000;38.612;2023-07-13T07:20:19;38.07;42.23
65040;HTU21D;51606;45.000;38.612;2023-07-13T07:22:47;37.59;42.84
65040;HTU21D;51606;45.000;38.612;2023-07-13T07:25:13;36.89;43.71
65040;HTU21D;51606;45.000;38.612;2023-07-13T07:27:40;36.15;44.82
65040;HTU21D;51606;45.000;38.612;2023-07-13T07:30:07;35.43;45.80
65040;HTU21D;51606;45.000;38.612;2023-07-13T07:32:34;34.74;46.64
65040;HTU21D;51606;45.000;38.612;2023-07-13T07:35:00;34.53;46.99
65040;HTU21D;51606;45.000;38.612;2023-07-13T07:37:27;34.93;46.35
65040;HTU21D;51606;45.000;38.612;2023-07-13T07:39:54;35.01;45.84
65040;HTU21D;51606;45.000;38.612;2023-07-13T07:42:20;34.55;46.44
65040;HTU21D;51606;45.000;38.612;2023-07-13T07:44:47;34.08;47.15
65040;HTU21D;51606;45.000;38.612;2023-07-13T07:47:13;34.07;47.28
65040;HTU21D;51606;45.000;38.612;2023-07-13T07:49:41;34.40;46.79
65040;HTU21D;51606;45.000;38.612;2023-07-13T08:03:09;35.43;45.62
65040;HTU21D;51606;45.000;38.612;2023-07-13T08:05:36;35.04;46.29
65040;HTU21D;51606;45.000;38.612;2023-07-13T08:08:03;35.12;46.30
65040;HTU21D;51606;45.000;38.612;2023-07-13T08:10:30;35.41;45.93
65040;HTU21D;51606;45.000;38.612;2023-07-13T08:12:57;35.78;45.41
65040;HTU21D;51606;45.000;38.612;2023-07-13T08:15:23;35.72;45.36
65040;HTU21D;51606;45.000;38.612;2023-07-13T08:17:50;35.57;45.48
65040;HTU21D;51606;45.000;38.612;2023-07-13T08:20:16;35.25;45.96
65040;HTU21D;51606;45.000;38.612;2023-07-13T08:22:43;35.34;45.88
65040;HTU21D;51606;45.000;38.612;2023-07-13T08:25:10;35.56;45.48
65040;HTU21D;51606;45.000;38.612;2023-07-13T08:27:37;35.50;45.43
65040;HTU21D;51606;45.000;38.612;2023-07-13T08:30:04;35.65;45.31
65040;HTU21D;51606;45.000;38.612;2023-07-13T08:32:31;35.84;45.01
65040;HTU21D;51606;45.000;38.612;2023-07-13T08:34:58;35.43;45.45
65040;HTU21D;51606;45.000;38.612;2023-07-13T08:37:24;35.12;45.93
65040;HTU21D;51606;45.000;38.612;2023-07-13T08:39:51;34.74;46.31
65040;HTU21D;51606;45.000;38.612;2023-07-13T08:42:57;33.96;47.22
65040;HTU21D;51606;45.000;38.612;2023-07-13T08:45:40;33.58;47.79
65040;HTU21D;51606;45.000;38.612;2023-07-13T08:48:13;33.31;48.03
65040;HTU21D;51606;45.000;38.612;2023-07-13T08:51:39;33.00;48.29
65040;HTU21D;51606;45.000;38.612;2023-07-13T08:53:49;32.55;48.95
65040;HTU21D;51606;45.000;38.612;2023-07-13T08:56:21;32.27;49.34
65040;HTU21D;51606;45.000;38.612;2023-07-13T08:58:53;32.47;48.89
65040;HTU21D;51606;45.000;38.612;2023-07-13T09:04:15;32.45;48.74
65040;HTU21D;51606;45.000;38.612;2023-07-13T09:07:26;32.50;48.79
65040;HTU21D;51606;45.000;38.612;2023-07-13T09:12:33;33.11;47.81
65040;HTU21D;51606;45.000;38.612;2023-07-13T09:15:04;32.92;48.22
65040;HTU21D;51606;45.000;38.612;2023-07-13T09:17:45;32.70;48.30
65040;HTU21D;51606;45.000;38.612;2023-07-13T09:20:37;32.28;48.91
65040;HTU21D;51606;45.000;38.612;2023-07-13T09:23:09;32.08;49.32
65040;HTU21D;51606;45.000;38.612;2023-07-13T09:25:38;32.01;49.42
65040;HTU21D;51606;45.000;38.612;2023-07-13T09:28:27;32.00;49.47
65040;HTU21D;51606;45.000;38.612;2023-07-13T09:31:16;32.40;49.00
65040;HTU21D;51606;45.000;38.612;2023-07-13T09:33:45;32.69;48.56
65040;HTU21D;51606;45.000;38.612;2023-07-13T09:36:24;32.73;48.59
65040;HTU21D;51606;45.000;38.612;2023-07-13T09:39:31;32.58;48.84
65040;HTU21D;51606;45.000;38.612;2023-07-13T09:42:16;32.43;49.24
65040;HTU21D;51606;45.000;38.612;2023-07-13T09:47:24;32.83;48.87
65040;HTU21D;51606;45.000;38.612;2023-07-13T09:49:58;33.13;48.50
65040;HTU21D;51606;45.000;38.612;2023-07-13T09:52:26;33.66;48.01
65040;HTU21D;51606;45.000;38.612;2023-07-13T09:54:54;34.11;47.47
65040;HTU21D;51606;45.000;38.612;2023-07-13T09:57:27;34.22;47.35
65040;HTU21D;51606;45.000;38.612;2023-07-13T09:59:55;34.44;47.41
65040;HTU21D;51606;45.000;38.612;2023-07-13T10:02:34;34.63;47.12
65040;HTU21D;51606;45.000;38.612;2023-07-13T10:05:06;34.74;46.89
65040;HTU21D;51606;45.000;38.612;2023-07-13T10:07:44;34.67;47.09
65040;HTU21D;51606;45.000;38.612;2023-07-13T10:10:14;34.65;47.38
65040;HTU21D;51606;45.000;38.612;2023-07-13T10:12:41;34.71;47.27
65040;HTU21D;51606;45.000;38.612;2023-07-13T10:15:24;34.86;47.12
65040;HTU21D;51606;45.000;38.612;2023-07-13T10:17:53;34.68;47.28
65040;HTU21D;51606;45.000;38.612;2023-07-13T10:20:21;34.33;47.66
65040;HTU21D;51606;45.000;38.612;2023-07-13T10:23:02;34.03;47.99
65040;HTU21D;51606;45.000;38.612;2023-07-13T10:25:34;33.71;48.49
65040;HTU21D;51606;45.000;38.612;2023-07-13T10:28:25;33.44;48.86
65040;HTU21D;51606;45.000;38.612;2023-07-13T10:30:55;33.36;48.92
65040;HTU21D;51606;45.000;38.612;2023-07-13T10:33:22;33.37;48.95
65040;HTU21D;51606;45.000;38.612;2023-07-13T10:35:51;33.44;48.88
65040;HTU21D;51606;45.000;38.612;2023-07-13T10:38:22;33.65;48.49
65040;HTU21D;51606;45.000;38.612;2023-07-13T10:41:02;34.00;47.96
65040;HTU21D;51606;45.000;38.612;2023-07-13T10:43:50;34.24;47.40
65040;HTU21D;51606;45.000;38.612;2023-07-13T10:46:22;34.07;47.55
65040;HTU21D;51606;45.000;38.612;2023-07-13T10:48:54;34.01;47.63
65040;HTU21D;51606;45.000;38.612;2023-07-13T10:51:22;33.93;47.79
65040;HTU21D;51606;45.000;38.612;2023-07-13T10:54:15;33.57;48.05
65040;HTU21D;51606;45.000;38.612;2023-07-13T10:56:46;33.01;48.75
65040;HTU21D;51606;45.000;38.612;2023-07-13T10:59:16;32.62;49.19
65040;HTU21D;51606;45.000;38.612;2023-07-13T11:01:57;32.70;48.92
65040;HTU21D;51606;45.000;38.612;2023-07-13T11:04:27;32.77;48.86
65040;HTU21D;51606;45.000;38.612;2023-07-13T11:06:59;33.16;48.36
65040;HTU21D;51606;45.000;38.612;2023-07-13T11:09:41;33.35;48.02
65040;HTU21D;51606;45.000;38.612;2023-07-13T11:15:14;33.46;48.06
65040;HTU21D;51606;45.000;38.612;2023-07-13T11:17:53;33.62;47.79
65040;HTU21D;51606;45.000;38.612;2023-07-13T11:20:35;33.64;47.86
65040;HTU21D;51606;45.000;38.612;2023-07-13T11:25:36;34.08;47.57
65040;HTU21D;51606;45.000;38.612;2023-07-13T11:42:15;34.34;47.41
65040;HTU21D;51606;45.000;38.612;2023-07-13T11:44:45;34.48;47.12
65040;HTU21D;51606;45.000;38.612;2023-07-13T11:47:18;34.60;47.02
65040;HTU21D;51606;45.000;38.612;2023-07-13T11:49:53;34.60;46.96
65040;HTU21D;51606;45.000;38.612;2023-07-13T11:52:32;34.37;47.35
65040;HTU21D;51606;45.000;38.612;2023-07-13T11:55:02;34.31;47.27
65040;HTU21D;51606;45.000;38.612;2023-07-13T12:00:45;34.17;47.54
65040;HTU21D;51606;45.000;38.612;2023-07-13T12:03:22;33.97;47.67
65040;HTU21D;51606;45.000;38.612;2023-07-13T12:08:28;33.41;48.45
65040;HTU21D;51606;45.000;38.612;2023-07-13T12:11:00;33.29;48.53
65040;HTU21D;51606;45.000;38.612;2023-07-13T12:13:37;33.26;48.55
65040;HTU21D;51606;45.000;38.612;2023-07-13T12:16:12;33.53;48.03
65040;HTU21D;51606;45.000;38.612;2023-07-13T12:18:43;33.91;47.52
65040;HTU21D;51606;45.000;38.612;2023-07-13T12:21:16;34.23;46.99
65040;HTU21D;51606;45.000;38.612;2023-07-13T12:23:45;34.45;46.73
65040;HTU21D;51606;45.000;38.612;2023-07-13T12:26:13;34.69;46.53
65040;HTU21D;51606;45.000;38.612;2023-07-13T12:28:49;34.76;46.31
65040;HTU21D;51606;45.000;38.612;2023-07-13T12:34:11;34.35;47.05
65040;HTU21D;51606;45.000;38.612;2023-07-13T12:36:45;34.22;47.22
65040;HTU21D;51606;45.000;38.612;2023-07-13T15:11:29;29.66;52.01
65040;HTU21D;51606;45.000;38.612;2023-07-13T15:13:56;29.54;52.05
65040;HTU21D;51606;45.000;38.612;2023-07-13T15:16:24;29.45;52.12
65040;HTU21D;51606;45.000;38.612;2023-07-13T15:18:51;29.34;52.22
65040;HTU21D;51606;45.000;38.612;2023-07-13T15:21:23;29.28;52.30
65040;HTU21D;51606;45.000;38.612;2023-07-13T15:23:50;29.19;52.41
65040;HTU21D;51606;45.000;38.612;2023-07-13T15:26:18;29.13;52.52
65040;HTU21D;51606;45.000;38.612;2023-07-13T15:28:46;29.03;52.68
65040;HTU21D;51606;45.000;38.612;2023-07-13T15:31:24;28.95;52.81
65040;HTU21D;51606;45.000;38.612;2023-07-13T15:33:52;28.86;52.95
65040;HTU21D;51606;45.000;38.612;2023-07-13T15:36:21;28.77;53.08
65040;HTU21D;51606;45.000;38.612;2023-07-13T15:38:50;28.67;53.21
65040;HTU21D;51606;45.000;38.612;2023-07-13T15:41:21;28.54;53.35
65040;HTU21D;51606;45.000;38.612;2023-07-13T15:43:50;28.44;53.52
65040;HTU21D;51606;45.000;38.612;2023-07-13T15:46:22;28.32;53.65
65040;HTU21D;51606;45.000;38.612;2023-07-13T15:48:50;28.18;53.84
65040;HTU21D;51606;45.000;38.612;2023-07-13T15:51:30;28.06;53.98
65040;HTU21D;51606;45.000;38.612;2023-07-13T15:54:02;27.95;54.13
65040;HTU21D;51606;45.000;38.612;2023-07-13T15:56:34;27.89;54.22
65040;HTU21D;51606;45.000;38.612;2023-07-13T15:59:01;27.79;54.30
65040;HTU21D;51606;45.000;38.612;2023-07-13T16:01:30;27.67;54.49
65040;HTU21D;51606;45.000;38.612;2023-07-13T16:03:58;27.55;54.65
65040;HTU21D;51606;45.000;38.612;2023-07-13T16:06:31;27.44;54.90
65040;HTU21D;51606;45.000;38.612;2023-07-13T16:09:00;27.35;55.01
65040;HTU21D;51606;45.000;38.612;2023-07-13T16:11:33;27.24;55.23
65040;HTU21D;51606;45.000;38.612;2023-07-13T16:14:00;27.14;55.33
65040;HTU21D;51606;45.000;38.612;2023-07-13T16:16:30;27.05;55.60
65040;HTU21D;51606;45.000;38.612;2023-07-13T16:19:00;26.97;55.80
65040;HTU21D;51606;45.000;38.612;2023-07-13T16:21:28;26.87;55.97
65040;HTU21D;51606;45.000;38.612;2023-07-13T16:23:56;26.77;56.18
65040;HTU21D;51606;45.000;38.612;2023-07-13T16:26:30;26.69;56.45
65040;HTU21D;51606;45.000;38.612;2023-07-13T16:29:17;26.56;56.72
65040;HTU21D;51606;45.000;38.612;2023-07-13T16:34:26;26.33;57.08
65040;HTU21D;51606;45.000;38.612;2023-07-13T16:36:53;26.21;57.29
65040;HTU21D;51606;45.000;38.612;2023-07-13T16:39:20;26.12;57.45
65040;HTU21D;51606;45.000;38.612;2023-07-13T16:41:52;26.03;57.68
65040;HTU21D;51606;45.000;38.612;2023-07-13T16:44:21;25.96;57.79
65040;HTU21D;51606;45.000;38.612;2023-07-13T16:46:50;25.89;57.94
65040;HTU21D;51606;45.000;38.612;2023-07-13T16:49:23;25.86;58.14
65040;HTU21D;51606;45.000;38.612;2023-07-13T16:51:51;25.78;58.19
65040;HTU21D;51606;45.000;38.612;2023-07-13T16:54:19;25.69;58.38
65040;HTU21D;51606;45.000;38.612;2023-07-13T16:56:47;25.61;58.61
65040;HTU21D;51606;45.000;38.612;2023-07-13T16:59:18;25.50;58.81
65040;HTU21D;51606;45.000;38.612;2023-07-13T17:01:45;25.40;58.97
65040;HTU21D;51606;45.000;38.612;2023-07-13T17:04:14;25.29;59.21
65040;HTU21D;51606;45.000;38.612;2023-07-13T17:06:44;25.16;59.39
65040;HTU21D;51606;45.000;38.612;2023-07-13T17:09:12;25.02;59.64
65040;HTU21D;51606;45.000;38.612;2023-07-13T17:11:41;24.89;59.92
65040;HTU21D;51606;45.000;38.612;2023-07-13T17:14:15;24.75;60.25
65040;HTU21D;51606;45.000;38.612;2023-07-13T17:16:50;24.60;60.42
65040;HTU21D;51606;45.000;38.612;2023-07-13T17:19:18;24.46;60.64
65040;HTU21D;51606;45.000;38.612;2023-07-13T17:21:46;24.32;60.86
65040;HTU21D;51606;45.000;38.612;2023-07-13T17:24:18;24.19;61.16
65040;HTU21D;51606;45.000;38.612;2023-07-13T17:26:48;24.06;61.37
65040;HTU21D;51606;45.000;38.612;2023-07-13T17:29:20;23.92;61.60
65040;HTU21D;51606;45.000;38.612;2023-07-13T17:31:47;23.79;61.71
65040;HTU21D;51606;45.000;38.612;2023-07-13T17:34:15;23.64;62.00
65040;HTU21D;51606;45.000;38.612;2023-07-13T17:36:46;23.50;62.20
65040;HTU21D;51606;45.000;38.612;2023-07-13T17:39:15;23.39;62.41
65040;HTU21D;51606;45.000;38.612;2023-07-13T17:41:43;23.28;62.57
65040;HTU21D;51606;45.000;38.612;2023-07-13T17:44:12;23.17;62.73
65040;HTU21D;51606;45.000;38.612;2023-07-13T17:46:39;23.08;62.88
65040;HTU21D;51606;45.000;38.612;2023-07-13T17:49:17;22.97;63.21
65040;HTU21D;51606;45.000;38.612;2023-07-13T17:51:49;22.86;63.16
65040;HTU21D;51606;45.000;38.612;2023-07-13T17:54:17;22.81;63.28
65040;HTU21D;51606;45.000;38.612;2023-07-13T17:56:45;22.72;63.37
65040;HTU21D;51606;45.000;38.612;2023-07-13T17:59:12;22.65;63.49
65040;HTU21D;51606;45.000;38.612;2023-07-13T18:01:38;22.61;63.57
65040;HTU21D;51606;45.000;38.612;2023-07-13T18:04:09;22.55;63.72
65040;HTU21D;51606;45.000;38.612;2023-07-13T18:06:39;22.50;63.77
65040;HTU21D;51606;45.000;38.612;2023-07-13T18:09:19;22.46;63.95
65040;HTU21D;51606;45.000;38.612;2023-07-13T18:11:46;22.39;63.88
65040;HTU21D;51606;45.000;38.612;2023-07-13T18:14:14;22.35;63.98
65040;HTU21D;51606;45.000;38.612;2023-07-13T18:16:45;22.32;64.08
65040;HTU21D;51606;45.000;38.612;2023-07-13T18:21:57;22.23;64.10
65040;HTU21D;51606;45.000;38.612;2023-07-13T18:24:24;22.18;64.22
65040;HTU21D;51606;45.000;38.612;2023-07-13T18:26:51;22.13;64.31
65040;HTU21D;51606;45.000;38.612;2023-07-13T18:29:18;22.07;64.44
65040;HTU21D;51606;45.000;38.612;2023-07-13T18:31:45;22.02;64.56
65040;HTU21D;51606;45.000;38.612;2023-07-13T18:34:12;21.95;64.72
65040;HTU21D;51606;45.000;38.612;2023-07-13T18:36:40;21.89;64.82
65040;HTU21D;51606;45.000;38.612;2023-07-13T18:39:12;21.83;65.11
65040;HTU21D;51606;45.000;38.612;2023-07-13T18:41:39;21.76;65.11
65040;HTU21D;51606;45.000;38.612;2023-07-13T18:44:07;21.69;65.24
65040;HTU21D;51606;45.000;38.612;2023-07-13T18:46:33;21.62;65.36
65040;HTU21D;51606;45.000;38.612;2023-07-13T18:49:02;21.57;65.45
65040;HTU21D;51606;45.000;38.612;2023-07-13T18:51:29;21.53;65.53
65040;HTU21D;51606;45.000;38.612;2023-07-13T18:53:56;21.48;65.62
65040;HTU21D;51606;45.000;38.612;2023-07-13T18:56:24;21.45;65.72